DW9418 Weather Reports


Display with metric or nautical units.
time (UTC)temp
F
wind
direction
speed
MPH
gust
MPH
rain 1hr
in
rain 24hr
in
rain mn
in
humidity
%
barometer
mb
20190524183025 89 0 5.0 13.0 0.00 0.00 0.00 59 1016.3
20190524182026 89 270 4.0 13.0 0.00 0.00 0.00 59 1016.3
20190524181026 88 292 5.0 12.0 0.00 0.00 0.00 60 1016.4
20190524180025 89 270 6.0 16.0 0.00 0.00 0.00 60 1016.4
20190524175026 89 270 4.0 10.0 0.00 0.00 0.00 60 1016.5
20190524174020 89 315 4.0 11.0 0.00 0.00 0.00 61 1016.5
20190524173025 88 315 4.0 14.0 0.00 0.00 0.00 60 1016.7
20190524172025 88 292 4.0 9.0 0.00 0.00 0.00 61 1016.6
20190524171025 87 270 4.0 9.0 0.00 0.00 0.00 63 1016.8
20190524170025 87 315 5.0 12.0 0.00 0.00 0.00 62 1016.8
20190524165025 86 315 4.0 12.0 0.00 0.00 0.00 65 1016.7
20190524164020 85 292 5.0 15.0 0.00 0.00 0.00 66 1016.7
20190524163020 84 270 5.0 12.0 0.00 0.00 0.00 69 1016.8
20190524162025 83 270 3.0 7.0 0.00 0.00 0.00 72 1016.7
20190524161025 82 292 2.0 8.0 0.00 0.00 0.00 74 1016.6
20190524160025 82 270 5.0 9.0 0.00 0.00 0.00 74 1016.6
20190524155023 82 292 4.0 10.0 0.00 0.00 0.00 75 1016.5
20190524154025 82 292 4.0 10.0 0.00 0.00 0.00 74 1016.6
20190524153020 83 292 4.0 10.0 0.00 0.00 0.00 73 1016.6
20190524152025 83 292 3.0 9.0 0.00 0.00 0.00 73 1016.6
20190524151025 82 270 5.0 14.0 0.00 0.00 0.00 76 1016.5
20190524150025 81 270 4.0 10.0 0.00 0.00 0.00 77 1016.4
20190524145025 81 270 4.0 11.0 0.00 0.00 0.00 80 1016.4
20190524144025 80 292 2.0 7.0 0.00 0.00 0.00 82 1016.4
20190524143027 79 270 3.0 11.0 0.00 0.00 0.00 82 1016.3
20190524142027 79 270 4.0 8.0 0.00 0.00 0.00 83 1016.3
20190524141027 79 270 3.0 15.0 0.00 0.00 0.00 83 1016.3
20190524140027 79 270 3.0 10.0 0.00 0.00 0.00 84 1016.1
20190524135027 78 270 2.0 7.0 0.00 0.00 0.00 84 1016.2
20190524134022 78 292 3.0 7.0 0.00 0.00 0.00 85 1015.9
20190524133025 78 292 2.0 7.0 0.00 0.00 0.00 85 1016.0
20190524132027 78 270 3.0 10.0 0.00 0.00 0.00 85 1015.9
20190524131027 77 270 3.0 8.0 0.00 0.00 0.00 86 1015.8
20190524130027 77 292 3.0 7.0 0.00 0.00 0.00 85 1015.7
20190524125027 77 270 2.0 6.0 0.00 0.00 0.00 86 1015.6
20190524124022 77 270 3.0 9.0 0.00 0.00 0.00 86 1015.4
20190524123021 77 270 3.0 9.0 0.00 0.00 0.00 86 1015.2
20190524122027 77 247 2.0 7.0 0.00 0.00 0.00 86 1014.9
20190524121027 77 270 4.0 10.0 0.00 0.00 0.00 86 1014.9
20190524120027 77 292 2.0 7.0 0.00 0.00 0.00 86 1014.8
20190524115025 77 270 2.0 6.0 0.00 0.00 0.00 86 1014.7
20190524114033 77 292 5.0 10.0 0.00 0.00 0.00 86 1014.5
20190524113022 77 270 5.0 10.0 0.00 0.00 0.00 86 1014.3
20190524112027 77 292 4.0 11.0 0.00 0.00 0.00 86 1014.2
20190524111027 78 292 3.0 8.0 0.00 0.00 0.00 86 1014.2
20190524110026 78 270 3.0 7.0 0.00 0.00 0.00 86 1014.1
20190524105026 78 292 3.0 9.0 0.00 0.00 0.00 86 1014.2
20190524104027 78 270 4.0 11.0 0.00 0.00 0.00 86 1014.1
20190524103022 78 270 3.0 7.0 0.00 0.00 0.00 86 1014.1
20190524102027 78 270 2.0 6.0 0.00 0.00 0.00 86 1014.1
20190524101027 78 315 3.0 7.0 0.00 0.00 0.00 86 1014.0
20190524100027 78 292 3.0 7.0 0.00 0.00 0.00 85 1013.9
20190524095027 78 292 2.0 6.0 0.00 0.00 0.00 85 1013.9
20190524094028 78 270 3.0 8.0 0.00 0.00 0.00 85 1013.9
20190524093027 78 292 3.0 8.0 0.00 0.00 0.00 85 1014.0
20190524092021 78 247 3.0 8.0 0.00 0.00 0.00 84 1013.9
20190524091026 78 247 4.0 12.0 0.00 0.00 0.00 84 1014.1
20190524090026 78 270 2.0 9.0 0.00 0.00 0.00 84 1014.2
20190524085026 78 270 5.0 12.0 0.00 0.00 0.00 84 1014.3
20190524084026 78 315 2.0 7.0 0.00 0.00 0.00 85 1014.3
20190524083026 78 270 4.0 11.0 0.00 0.00 0.00 86 1014.3
20190524082021 78 315 3.0 9.0 0.00 0.00 0.00 86 1014.4
20190524081026 78 270 4.0 9.0 0.00 0.00 0.00 87 1014.5
20190524080026 77 292 3.0 11.0 0.00 0.00 0.00 87 1014.4
20190524075026 77 292 4.0 8.0 0.00 0.00 0.00 88 1014.5
20190524074026 78 270 2.0 9.0 0.00 0.00 0.00 88 1014.5
20190524073026 78 270 3.0 6.0 0.00 0.00 0.00 88 1014.5
20190524072021 78 270 3.0 6.0 0.00 0.00 0.00 88 1014.5
20190524071021 78 270 3.0 8.0 0.00 0.00 0.00 87 1014.5
20190524070026 78 292 3.0 8.0 0.00 0.00 0.00 87 1014.6
20190524065026 78 292 2.0 8.0 0.00 0.00 0.00 87 1014.8
20190524064026 78 292 4.0 10.0 0.00 0.00 0.00 87 1014.7
20190524063026 78 270 5.0 9.0 0.00 0.00 0.00 86 1014.7
20190524062026 79 292 4.0 10.0 0.00 0.00 0.00 86 1014.9
20190524061021 79 292 4.0 17.0 0.00 0.00 0.00 86 1014.8
20190524060026 79 270 4.0 9.0 0.00 0.00 0.00 85 1014.7
20190524055026 79 292 5.0 12.0 0.00 0.00 0.00 85 1014.8
20190524054026 79 270 5.0 11.0 0.00 0.00 0.00 85 1015.0
20190524053026 79 270 5.0 13.0 0.00 0.00 0.00 85 1015.1
20190524052026 79 270 6.0 17.0 0.00 0.00 0.00 84 1015.1
20190524051021 79 270 6.0 16.0 0.00 0.00 0.00 84 1015.1
20190524050026 79 270 5.0 15.0 0.00 0.00 0.00 85 1014.9
20190524045026 80 270 6.0 18.0 0.00 0.00 0.00 85 1015.1
20190524044027 80 270 3.0 9.0 0.00 0.00 0.00 85 1015.1
20190524043027 80 292 5.0 11.0 0.00 0.00 0.00 84 1015.2
20190524042026 80 292 3.0 10.0 0.00 0.00 0.00 84 1015.1
20190524041026 80 247 4.0 12.0 0.00 0.00 0.00 84 1015.3
20190524040027 80 270 4.0 13.0 0.00 0.00 0.00 85 1015.3
20190524035021 80 292 4.0 7.0 0.00 0.00 0.00 84 1015.2
20190524034026 80 270 6.0 15.0 0.00 0.00 0.00 84 1015.0
20190524033026 80 270 5.0 13.0 0.00 0.00 0.00 83 1015.0
20190524032026 81 270 6.0 15.0 0.00 0.00 0.00 83 1014.8
20190524031026 81 270 4.0 14.0 0.00 0.00 0.00 83 1014.5
20190524030026 81 270 6.0 14.0 0.00 0.00 0.00 83 1014.4
20190524025021 81 270 4.0 10.0 0.00 0.00 0.00 83 1014.3
20190524024026 81 270 4.0 14.0 0.00 0.00 0.00 82 1014.1
20190524023026 81 270 5.0 12.0 0.00 0.00 0.00 82 1013.9
20190524022026 81 292 4.0 11.0 0.00 0.00 0.00 82 1013.7
20190524021026 82 270 5.0 13.0 0.00 0.00 0.00 81 1013.5
20190524020026 82 270 6.0 13.0 0.00 0.00 0.00 80 1013.3
20190524015021 82 270 5.0 15.0 0.00 0.00 0.00 79 1013.4
20190524014026 83 292 5.0 12.0 0.00 0.00 0.00 78 1013.2
20190524013026 83 270 5.0 10.0 0.00 0.00 0.00 77 1013.0
20190524012026 84 270 7.0 14.0 0.00 0.00 0.00 76 1013.1
20190524011026 84 270 4.0 12.0 0.00 0.00 0.00 75 1012.9
20190524010026 84 270 5.0 15.0 0.00 0.00 0.00 73 1012.7
20190524005026 85 292 4.0 11.0 0.00 0.00 0.00 72 1012.6
20190524004021 85 292 6.0 14.0 0.00 0.00 0.00 72 1012.4
20190524003026 86 270 5.0 13.0 0.00 0.00 0.00 71 1012.4
20190524002026 86 292 7.0 15.0 0.00 0.00 0.00 70 1012.5
20190524001026 87 270 5.0 14.0 0.00 0.00 0.00 70 1012.4
20190524000026 87 270 7.0 14.0 0.00 0.00 0.00 68 1012.4
20190523235027 88 270 6.0 18.0 0.00 0.00 0.00 67 1012.4
20190523234021 88 270 5.0 11.0 0.00 0.00 0.00 66 1012.4
20190523233026 89 270 8.0 20.0 0.00 0.00 0.00 64 1012.4
20190523232026 90 270 4.0 10.0 0.00 0.00 0.00 62 1012.6
20190523231026 90 270 6.0 16.0 0.00 0.00 0.00 61 1012.6
20190523230026 91 270 5.0 16.0 0.00 0.00 0.00 59 1012.5
20190523225025 91 270 6.0 14.0 0.00 0.00 0.00 59 1012.5
20190523224020 91 315 5.0 12.0 0.00 0.00 0.00 60 1012.5
20190523223020 91 292 8.0 16.0 0.00 0.00 0.00 57 1012.5
20190523222026 92 270 6.0 19.0 0.00 0.00 0.00 56 1012.6
20190523221026 93 270 4.0 15.0 0.00 0.00 0.00 57 1012.5
20190523220026 92 270 5.0 14.0 0.00 0.00 0.00 56 1012.7
20190523215026 92 315 4.0 9.0 0.00 0.00 0.00 56 1012.6
20190523214025 91 292 6.0 20.0 0.00 0.00 0.00 57 1012.7
20190523213021 91 270 5.0 16.0 0.00 0.00 0.00 57 1012.8
20190523212026 91 270 5.0 15.0 0.00 0.00 0.00 56 1012.8
20190523211025 91 292 5.0 12.0 0.00 0.00 0.00 57 1012.9
20190523210026 92 270 5.0 13.0 0.00 0.00 0.00 56 1013.0
20190523205025 92 270 6.0 16.0 0.00 0.00 0.00 55 1013.1
20190523204025 92 270 4.0 16.0 0.00 0.00 0.00 55 1013.2
20190523203021 92 0 6.0 15.0 0.00 0.00 0.00 55 1013.3
20190523202025 93 270 4.0 13.0 0.00 0.00 0.00 54 1013.4
20190523201025 92 292 5.0 12.0 0.00 0.00 0.00 55 1013.4
20190523200026 92 270 5.0 16.0 0.00 0.00 0.00 57 1013.4
20190523195026 92 292 4.0 9.0 0.00 0.00 0.00 57 1013.5
20190523194025 91 270 6.0 15.0 0.00 0.00 0.00 58 1013.7
20190523193020 91 247 4.0 9.0 0.00 0.00 0.00 59 1013.8
20190523192020 91 292 4.0 11.0 0.00 0.00 0.00 59 1013.8
20190523191026 90 0 6.0 15.0 0.00 0.00 0.00 58 1013.8
20190523190025 91 270 6.0 13.0 0.00 0.00 0.00 57 1013.9
20190523185025 90 0 6.0 13.0 0.00 0.00 0.00 58 1014.1
20190523184023 89 270 5.0 11.0 0.00 0.00 0.00 60 1014.3